Ocean Intrepide — CFK3106 — position and weather

sailwx.info

Track history (hours):
 
Tides and Currents Weather Stations Pressure Air Temp Water Temp Dewpoint Dewpoint Depression Visibility Wind Speed Wind Dir Waves Ship Positions

Ocean Intrepide

Last reported at 2018-Jun-30 11:24 UTC. Time now 2018-Jul-23 17:37 UTC.
Position N 45°46' W 073°23'.
Warning: this ship's position is 23 days out of date.

Length 24 m; draft 4.2 m.

Type: Tug. MMSI: 316003325.

Date/timePositionNaut miles runAvg speedWind from/ knotsBaromVisibWave heightAir tempDewpointWater temp
2018-Jun-30 11:24N 45°46' W 073°23'3 8.7
2018-Jun-30 11:00N 45°49' W 073°19'5 9.8
2018-Jun-30 10:30N 45°53' W 073°15'5 9.0
2018-Jun-30 10:00N 45°57' W 073°13'3 5.3
2018-Jun-30 09:21N 45°60' W 073°10'0 0.0
2018-Jun-30 08:51N 45°60' W 073°10'2 4.5
2018-Jun-30 08:20N 45°58' W 073°12'412.3
2018-Jun-30 08:01N 45°54' W 073°13'611.5
2018-Jun-30 07:31N 45°49' W 073°18'  
2018-Jun-28 02:42N 45°46' W 073°22'2 9.8
2018-Jun-28 02:30N 45°48' W 073°20'3 6.5
2018-Jun-28 02:01N 45°50' W 073°17'0 0.3
2018-Jun-28 01:31N 45°50' W 073°17'0 0.0
2018-Jun-28 01:00N 45°50' W 073°17'0 0.0
2018-Jun-28 00:30N 45°50' W 073°17'0 0.0
2018-Jun-28 00:00N 45°50' W 073°17'0 0.0
2018-Jun-27 23:30N 45°50' W 073°17'0 0.7
2018-Jun-27 23:01N 45°50' W 073°18'5 6.0
2018-Jun-27 22:12N 45°46' W 073°22'2 9.8
2018-Jun-27 22:00N 45°48' W 073°20'5 9.5
2018-Jun-27 21:30N 45°51' W 073°16'5 9.4
2018-Jun-27 21:00N 45°55' W 073°13'5 9.4
2018-Jun-27 20:30N 45°60' W 073°10'0 0.0
2018-Jun-27 19:59N 45°60' W 073°10'0 0.0
2018-Jun-27 19:30N 45°60' W 073°10'0 0.0
2018-Jun-27 19:00N 45°60' W 073°10'0 0.0
2018-Jun-27 18:27N 45°60' W 073°10'0 0.9
2018-Jun-27 18:00N 46°00' W 073°10'0 0.7
2018-Jun-27 17:26N 45°60' W 073°10'613.7
2018-Jun-27 17:00N 45°54' W 073°13'714.4
2018-Jun-27 16:31N 45°49' W 073°19'  
Track history (hours):
 
Tides and Currents Weather Stations Pressure Air Temp Water Temp Dewpoint Dewpoint Depression Visibility Wind Speed Wind Dir Waves Ship Positions

Ocean Intrepide

Last reported at 2018-Jun-30 11:24 UTC. Time now 2018-Jul-23 17:37 UTC.
Position N 45°46' W 073°23'.
Warning: this ship's position is 23 days out of date.

Length 24 m; draft 4.2 m.

Type: Tug. MMSI: 316003325.

Date/timePositionNaut miles runAvg speedWind from/ knotsBaromVisibWave heightAir tempDewpointWater temp
2018-Jun-30 11:24N 45°46' W 073°23'3 8.7
2018-Jun-30 11:00N 45°49' W 073°19'5 9.8
2018-Jun-30 10:30N 45°53' W 073°15'5 9.0
2018-Jun-30 10:00N 45°57' W 073°13'3 5.3
2018-Jun-30 09:21N 45°60' W 073°10'0 0.0
2018-Jun-30 08:51N 45°60' W 073°10'2 4.5
2018-Jun-30 08:20N 45°58' W 073°12'412.3
2018-Jun-30 08:01N 45°54' W 073°13'611.5
2018-Jun-30 07:31N 45°49' W 073°18'  
2018-Jun-28 02:42N 45°46' W 073°22'2 9.8
2018-Jun-28 02:30N 45°48' W 073°20'3 6.5
2018-Jun-28 02:01N 45°50' W 073°17'0 0.3
2018-Jun-28 01:31N 45°50' W 073°17'0 0.0
2018-Jun-28 01:00N 45°50' W 073°17'0 0.0
2018-Jun-28 00:30N 45°50' W 073°17'0 0.0
2018-Jun-28 00:00N 45°50' W 073°17'0 0.0
2018-Jun-27 23:30N 45°50' W 073°17'0 0.7
2018-Jun-27 23:01N 45°50' W 073°18'5 6.0
2018-Jun-27 22:12N 45°46' W 073°22'2 9.8
2018-Jun-27 22:00N 45°48' W 073°20'5 9.5
2018-Jun-27 21:30N 45°51' W 073°16'5 9.4
2018-Jun-27 21:00N 45°55' W 073°13'5 9.4
2018-Jun-27 20:30N 45°60' W 073°10'0 0.0
2018-Jun-27 19:59N 45°60' W 073°10'0 0.0
2018-Jun-27 19:30N 45°60' W 073°10'0 0.0
2018-Jun-27 19:00N 45°60' W 073°10'0 0.0
2018-Jun-27 18:27N 45°60' W 073°10'0 0.9
2018-Jun-27 18:00N 46°00' W 073°10'0 0.7
2018-Jun-27 17:26N 45°60' W 073°10'613.7
2018-Jun-27 17:00N 45°54' W 073°13'714.4
2018-Jun-27 16:31N 45°49' W 073°19'  

Dump ship's entire track history